createdAt,value
2022-12-03T00:00:13.518Z,38.60
2022-12-03T00:02:50.112Z,40.50
2022-12-03T00:05:17.049Z,43.15
2022-12-03T00:07:43.856Z,43.85
2022-12-03T00:10:11.493Z,42.65
2022-12-03T00:12:38.287Z,46.40
2022-12-03T00:15:07.211Z,44.67
2022-12-03T00:17:33.911Z,42.85
2022-12-03T00:20:00.657Z,42.72
2022-12-03T00:22:27.379Z,45.83
2022-12-03T00:24:54.584Z,43.63
2022-12-03T00:27:22.054Z,44.08
2022-12-03T00:29:51.193Z,44.67
2022-12-03T00:32:17.918Z,43.65
2022-12-03T00:34:47.927Z,42.72
2022-12-03T00:37:16.813Z,42.45
2022-12-03T00:39:43.471Z,42.25
2022-12-03T00:42:12.960Z,43.03
2022-12-03T00:44:39.704Z,41.03
2022-12-03T00:47:09.888Z,44.55
2022-12-03T00:49:39.124Z,42.63
2022-12-03T00:52:05.857Z,42.58
2022-12-03T00:54:32.591Z,40.65
2022-12-03T00:56:59.362Z,41.80
2022-12-03T00:59:26.132Z,40.55
2022-12-03T01:01:52.874Z,39.47
2022-12-03T01:04:19.914Z,42.58
2022-12-03T01:06:46.747Z,41.40
2022-12-03T01:09:13.599Z,41.80
2022-12-03T01:11:41.314Z,43.10
2022-12-03T01:14:10.459Z,42.50
2022-12-03T01:16:38.004Z,39.50
2022-12-03T01:19:06.379Z,42.92
2022-12-03T01:21:33.578Z,42.58
2022-12-03T01:24:03.995Z,43.00
2022-12-03T01:26:30.914Z,42.83
2022-12-03T01:29:00.185Z,41.70
2022-12-03T01:31:45.756Z,40.78
2022-12-03T01:34:12.526Z,42.97
2022-12-03T01:36:41.812Z,45.17
2022-12-03T01:39:08.745Z,44.53
2022-12-03T01:41:36.721Z,46.30
2022-12-03T01:44:07.173Z,42.03
2022-12-03T01:46:41.834Z,40.63
2022-12-03T01:49:17.008Z,40.05
2022-12-03T01:51:44.046Z,44.45
2022-12-03T01:54:18.167Z,41.55
2022-12-03T01:56:46.162Z,42.00
2022-12-03T01:59:21.566Z,41.33
2022-12-03T02:01:48.396Z,43.72
2022-12-03T02:04:17.026Z,41.78
2022-12-03T02:06:44.668Z,40.47
2022-12-03T02:09:12.725Z,42.15
2022-12-03T02:11:48.768Z,40.83
2022-12-03T02:14:21.659Z,43.00
2022-12-03T02:16:48.653Z,41.72
2022-12-03T02:19:27.145Z,41.72
2022-12-03T02:22:19.137Z,43.60
2022-12-03T02:24:49.055Z,42.88
2022-12-03T02:27:20.423Z,46.15
2022-12-03T02:29:49.650Z,45.22
2022-12-03T02:32:18.896Z,42.85
2022-12-03T02:34:46.504Z,44.05
2022-12-03T02:37:17.342Z,43.15
2022-12-03T02:39:49.075Z,43.45
2022-12-03T02:45:11.460Z,45.80
2022-12-03T02:48:00.883Z,44.70
2022-12-03T02:50:32.015Z,43.97
2022-12-03T02:53:01.665Z,46.15
2022-12-03T02:55:36.851Z,45.60
2022-12-03T02:58:05.192Z,44.25
2022-12-03T03:00:32.775Z,45.45
2022-12-03T03:03:00.741Z,44.10
2022-12-03T03:05:33.669Z,41.90
2022-12-03T03:08:01.522Z,43.80
2022-12-03T03:10:33.148Z,46.55
2022-12-03T03:13:02.337Z,46.03
2022-12-03T03:15:29.175Z,43.67
2022-12-03T03:17:56.388Z,45.83
2022-12-03T03:20:25.290Z,41.88
2022-12-03T03:22:51.979Z,47.20
2022-12-03T03:25:22.331Z,43.85
2022-12-03T03:27:49.060Z,43.95
2022-12-03T03:30:18.246Z,43.08
2022-12-03T03:32:47.179Z,44.42
2022-12-03T03:35:14.789Z,44.92
2022-12-03T03:37:44.105Z,43.17
2022-12-03T03:40:11.527Z,47.88
2022-12-03T03:42:38.924Z,40.90
2022-12-03T03:45:09.413Z,44.13
2022-12-03T03:47:39.241Z,44.30
2022-12-03T03:50:08.012Z,44.80
2022-12-03T03:52:35.547Z,47.70
2022-12-03T03:55:04.861Z,43.97
2022-12-03T03:57:33.959Z,42.78
2022-12-03T04:00:00.784Z,41.65
2022-12-03T04:02:29.965Z,43.03
2022-12-03T04:04:56.810Z,48.33
2022-12-03T04:07:26.658Z,44.25
2022-12-03T04:09:53.411Z,44.03
2022-12-03T04:12:38.530Z,43.15
2022-12-03T04:15:05.848Z,41.60
2022-12-03T04:17:34.669Z,43.90
2022-12-03T04:20:01.354Z,43.97
2022-12-03T04:22:42.508Z,42.70
2022-12-03T04:25:30.265Z,41.60
2022-12-03T04:28:15.628Z,43.78
2022-12-03T04:30:42.374Z,42.95
2022-12-03T04:33:27.941Z,41.88
2022-12-03T04:35:54.886Z,42.13
2022-12-03T04:38:21.569Z,43.90
2022-12-03T04:41:06.335Z,43.75
2022-12-03T04:43:34.897Z,44.45
2022-12-03T04:46:02.022Z,46.53
2022-12-03T04:48:31.032Z,43.80
2022-12-03T04:50:57.859Z,45.60
2022-12-03T04:53:24.547Z,44.78
2022-12-03T04:55:53.541Z,45.08
2022-12-03T04:58:24.929Z,45.35
2022-12-03T05:00:54.194Z,45.15
2022-12-03T05:03:23.417Z,46.40
2022-12-03T05:05:53.231Z,46.35
2022-12-03T05:08:19.964Z,48.45
2022-12-03T05:10:46.661Z,44.08
2022-12-03T05:13:15.861Z,45.67
2022-12-03T05:15:42.560Z,44.30
2022-12-03T05:18:09.245Z,43.95
2022-12-03T05:20:41.728Z,43.80
2022-12-03T05:23:15.214Z,47.33
2022-12-03T05:25:42.065Z,43.70
2022-12-03T05:28:09.067Z,46.40
2022-12-03T05:30:38.153Z,43.97
2022-12-03T05:33:09.562Z,44.03
2022-12-03T05:35:41.098Z,45.97
2022-12-03T05:38:07.885Z,44.92
2022-12-03T05:40:37.184Z,45.35
2022-12-03T05:43:04.025Z,44.92
2022-12-03T05:45:36.532Z,41.00
2022-12-03T05:48:04.853Z,45.20
2022-12-03T05:50:36.153Z,43.78
2022-12-03T05:53:05.541Z,45.42
2022-12-03T05:55:34.807Z,43.63
2022-12-03T05:58:03.768Z,43.88
2022-12-03T06:00:34.589Z,43.28
2022-12-03T06:03:07.944Z,43.25
2022-12-03T06:05:37.061Z,43.83
2022-12-03T06:08:06.169Z,49.35
2022-12-03T06:10:35.179Z,44.47
2022-12-03T06:13:03.191Z,43.42
2022-12-03T06:15:32.115Z,43.42
2022-12-03T06:17:58.871Z,45.08
2022-12-03T06:20:25.531Z,44.03
2022-12-03T06:22:54.411Z,45.88
2022-12-03T06:25:21.267Z,43.38
2022-12-03T06:27:47.997Z,45.35
2022-12-03T06:30:14.899Z,48.15
2022-12-03T06:32:41.685Z,46.78
2022-12-03T06:35:08.989Z,44.78
2022-12-03T06:37:35.688Z,44.55
2022-12-03T06:40:02.454Z,48.15
2022-12-03T06:42:29.178Z,46.65
2022-12-03T06:44:56.347Z,42.55
2022-12-03T06:47:23.351Z,46.28
2022-12-03T06:49:50.062Z,42.92
2022-12-03T06:52:19.015Z,48.15
2022-12-03T06:54:45.930Z,42.40
2022-12-03T06:57:12.623Z,42.65
2022-12-03T06:59:39.356Z,44.70
2022-12-03T07:02:06.066Z,44.55
2022-12-03T07:04:33.888Z,44.03
2022-12-03T07:07:00.668Z,44.30
2022-12-03T07:09:29.898Z,47.67
2022-12-03T07:11:56.632Z,43.20
2022-12-03T07:14:23.316Z,48.03
2022-12-03T07:16:54.679Z,46.42
2022-12-03T07:19:27.728Z,44.63
2022-12-03T07:22:01.147Z,47.38
2022-12-03T07:24:27.980Z,50.00
2022-12-03T07:26:55.085Z,50.78
2022-12-03T07:29:25.262Z,48.42
2022-12-03T07:31:54.219Z,49.53
2022-12-03T07:34:21.634Z,51.63
2022-12-03T07:36:50.933Z,47.75
2022-12-03T07:39:17.629Z,50.40
2022-12-03T07:41:44.304Z,49.40
2022-12-03T07:44:14.802Z,49.13
2022-12-03T07:46:42.921Z,49.30
2022-12-03T07:49:09.883Z,48.13
2022-12-03T07:51:38.720Z,49.88
2022-12-03T07:54:08.120Z,52.55
2022-12-03T07:56:34.926Z,50.75
2022-12-03T07:59:04.132Z,52.22
2022-12-03T08:01:30.874Z,52.35
2022-12-03T08:03:59.787Z,52.83
2022-12-03T08:06:28.739Z,52.50
2022-12-03T08:08:55.451Z,54.42
2022-12-03T08:11:22.286Z,53.10
2022-12-03T08:13:49.030Z,56.67
2022-12-03T08:16:21.691Z,54.05
2022-12-03T08:18:50.128Z,51.50
2022-12-03T08:21:21.567Z,51.22
2022-12-03T08:23:50.676Z,50.42
2022-12-03T08:26:26.161Z,50.53
2022-12-03T08:28:53.664Z,53.80
2022-12-03T08:31:32.222Z,52.33
2022-12-03T08:34:15.097Z,52.72
2022-12-03T08:36:42.025Z,49.08
2022-12-03T08:39:37.800Z,54.20
2022-12-03T08:42:38.689Z,54.47
2022-12-03T08:45:32.216Z,48.13
2022-12-03T08:48:23.751Z,50.35
2022-12-03T08:50:50.516Z,54.65
2022-12-03T08:53:38.529Z,52.72
2022-12-03T08:56:15.404Z,52.75
2022-12-03T08:58:44.250Z,48.33
2022-12-03T09:01:11.085Z,51.70
2022-12-03T09:03:41.858Z,49.78
2022-12-03T09:06:08.731Z,49.40
2022-12-03T09:08:38.111Z,52.17
2022-12-03T09:11:07.457Z,52.13
2022-12-03T09:13:36.453Z,48.65
2022-12-03T09:16:03.188Z,46.70
2022-12-03T09:18:29.881Z,49.08
2022-12-03T09:20:57.091Z,47.85
2022-12-03T09:23:24.030Z,51.70
2022-12-03T09:25:52.928Z,43.55
2022-12-03T09:28:19.716Z,39.35
2022-12-03T09:30:48.626Z,41.95
2022-12-03T09:33:15.351Z,43.63
2022-12-03T09:35:42.147Z,42.05
2022-12-03T09:38:08.835Z,45.25
2022-12-03T09:40:35.542Z,44.20
2022-12-03T09:43:02.301Z,41.40
2022-12-03T09:45:29.151Z,38.95
2022-12-03T09:47:56.004Z,42.42
2022-12-03T09:50:26.321Z,48.25
2022-12-03T09:52:58.975Z,49.45
2022-12-03T09:55:27.770Z,48.60
2022-12-03T09:57:55.755Z,49.50
2022-12-03T10:00:26.570Z,51.45
2022-12-03T10:02:57.293Z,50.58
2022-12-03T10:05:24.523Z,52.00
2022-12-03T10:07:52.226Z,52.08
2022-12-03T10:10:21.947Z,52.60
2022-12-03T10:12:50.182Z,49.13
2022-12-03T10:15:22.767Z,53.60
2022-12-03T10:17:55.619Z,56.33
2022-12-03T10:20:24.542Z,57.90
2022-12-03T10:22:55.921Z,50.88
2022-12-03T10:25:25.390Z,56.35
2022-12-03T10:28:05.256Z,58.47
2022-12-03T10:30:34.258Z,56.22
2022-12-03T10:33:17.370Z,53.67
2022-12-03T10:35:45.629Z,54.50
2022-12-03T10:38:18.208Z,57.20
2022-12-03T10:40:45.636Z,62.42
2022-12-03T10:43:19.943Z,62.58
2022-12-03T10:46:09.517Z,59.60
2022-12-03T10:48:36.346Z,61.47
2022-12-03T10:51:06.980Z,60.58
2022-12-03T10:53:40.318Z,59.42
2022-12-03T10:56:13.687Z,61.70
2022-12-03T10:58:42.729Z,56.95
2022-12-03T11:01:21.240Z,57.35
2022-12-03T11:03:48.503Z,59.70
2022-12-03T11:06:18.232Z,57.80
2022-12-03T11:08:51.552Z,56.17
2022-12-03T11:11:26.117Z,57.33
2022-12-03T11:13:55.554Z,60.22
2022-12-03T11:17:02.631Z,53.75
2022-12-03T11:19:43.759Z,58.70
2022-12-03T11:22:19.717Z,61.50
2022-12-03T11:24:46.633Z,56.00
2022-12-03T11:30:01.579Z,56.10
2022-12-03T11:32:43.172Z,62.30
2022-12-03T11:35:28.178Z,57.35
2022-12-03T11:38:33.150Z,64.32
2022-12-03T11:41:12.795Z,65.75
2022-12-03T11:43:57.166Z,58.97
2022-12-03T11:46:44.080Z,61.70
2022-12-03T11:49:29.799Z,65.28
2022-12-03T11:51:58.353Z,62.05
2022-12-03T11:54:28.450Z,64.93
2022-12-03T11:56:57.644Z,62.30
2022-12-03T11:59:27.624Z,62.65
2022-12-03T12:01:54.378Z,64.22
2022-12-03T12:04:37.662Z,64.57
2022-12-03T12:07:04.592Z,59.92
2022-12-03T12:09:55.250Z,62.25
2022-12-03T12:12:45.615Z,61.92
2022-12-03T12:15:41.675Z,61.90
2022-12-03T12:18:33.451Z,62.78
2022-12-03T12:21:37.635Z,53.00
2022-12-03T12:24:29.302Z,56.95
2022-12-03T12:27:04.396Z,60.03
2022-12-03T12:29:31.120Z,54.88
2022-12-03T12:32:10.966Z,52.00
2022-12-03T12:34:42.017Z,59.35
2022-12-03T12:37:20.702Z,53.63
2022-12-03T12:39:48.162Z,54.65
2022-12-03T12:42:30.134Z,60.30
2022-12-03T12:47:30.083Z,59.47
2022-12-03T12:49:58.229Z,59.75
2022-12-03T12:52:25.294Z,59.92
2022-12-03T12:54:52.283Z,61.78
2022-12-03T12:57:22.613Z,66.82
2022-12-03T12:59:50.819Z,62.55
2022-12-03T13:02:26.662Z,65.30
2022-12-03T13:04:53.587Z,64.45
2022-12-03T13:07:22.459Z,65.55
2022-12-03T13:09:55.336Z,71.25
2022-12-03T13:12:24.352Z,72.45
2022-12-03T13:14:53.676Z,76.75
2022-12-03T13:17:25.971Z,72.35
2022-12-03T13:20:03.644Z,73.50
2022-12-03T13:22:33.615Z,74.70
2022-12-03T13:25:50.896Z,66.70
2022-12-03T13:28:12.597Z,68.68
2022-12-03T13:30:41.775Z,67.22
2022-12-03T13:33:27.578Z,68.38
2022-12-03T13:35:56.268Z,70.13
2022-12-03T13:38:25.046Z,69.45
2022-12-03T13:41:00.266Z,72.30
2022-12-03T13:43:31.853Z,67.85
2022-12-03T13:45:59.684Z,69.43
2022-12-03T13:48:31.962Z,63.72
2022-12-03T13:51:12.852Z,65.95
2022-12-03T13:53:42.739Z,69.28
2022-12-03T13:56:29.240Z,63.60
2022-12-03T13:58:57.871Z,59.78
2022-12-03T14:01:27.841Z,54.92
2022-12-03T14:03:54.805Z,54.55
2022-12-03T14:06:21.732Z,53.75
2022-12-03T14:08:51.452Z,53.40
2022-12-03T14:11:36.479Z,51.33
2022-12-03T14:14:03.198Z,55.08
2022-12-03T14:16:29.937Z,50.90
2022-12-03T14:18:56.717Z,54.35
2022-12-03T14:21:25.641Z,59.10
2022-12-03T14:23:54.508Z,50.95
2022-12-03T14:26:21.330Z,54.80
2022-12-03T14:28:48.033Z,53.83
2022-12-03T14:31:14.813Z,49.67
2022-12-03T14:33:41.536Z,49.20
2022-12-03T14:36:09.296Z,41.63
2022-12-03T14:38:35.965Z,41.25
2022-12-03T14:41:02.809Z,45.15
2022-12-03T14:43:32.031Z,44.05
2022-12-03T14:46:01.588Z,40.13
2022-12-03T14:48:28.388Z,45.60
2022-12-03T14:50:55.090Z,45.03
2022-12-03T14:53:27.017Z,51.78
2022-12-03T14:55:55.655Z,54.17
2022-12-03T14:58:26.816Z,51.35
2022-12-03T15:00:53.531Z,53.47
2022-12-03T15:03:22.469Z,54.50
2022-12-03T15:05:49.226Z,53.85
2022-12-03T15:08:15.926Z,60.03
2022-12-03T15:10:42.628Z,59.28
2022-12-03T15:13:12.158Z,63.38
2022-12-03T15:15:41.080Z,68.63
2022-12-03T15:18:10.061Z,67.45
2022-12-03T15:20:38.951Z,65.32
2022-12-03T15:23:08.790Z,69.45
2022-12-03T15:25:40.231Z,68.30
2022-12-03T15:28:09.824Z,70.05
2022-12-03T15:30:38.777Z,72.68
2022-12-03T15:33:06.358Z,69.53
2022-12-03T15:35:33.671Z,73.38
2022-12-03T15:38:00.602Z,68.43
2022-12-03T15:40:27.449Z,72.22
2022-12-03T15:42:56.760Z,73.20
2022-12-03T15:45:26.042Z,74.32
2022-12-03T15:47:54.915Z,72.55
2022-12-03T15:50:21.559Z,68.35
2022-12-03T15:52:48.238Z,74.63
2022-12-03T15:55:16.230Z,72.63
2022-12-03T15:57:43.280Z,69.22
2022-12-03T16:00:12.016Z,75.80
2022-12-03T16:02:39.061Z,70.22
2022-12-03T16:05:09.350Z,76.60
2022-12-03T16:07:38.877Z,73.68
2022-12-03T16:10:10.764Z,70.82
2022-12-03T16:15:04.534Z,65.18
2022-12-03T16:17:33.543Z,72.38
2022-12-03T16:20:03.076Z,70.47
2022-12-03T16:22:31.978Z,67.07
2022-12-03T16:25:01.277Z,71.57
2022-12-03T16:27:27.978Z,67.20
2022-12-03T16:29:57.190Z,73.22
2022-12-03T16:32:26.432Z,64.78
2022-12-03T16:34:53.308Z,63.28
2022-12-03T16:37:22.164Z,69.47
2022-12-03T16:39:51.016Z,71.15
2022-12-03T16:42:19.934Z,66.75
2022-12-03T16:45:05.451Z,65.63
2022-12-03T16:47:34.383Z,64.78
2022-12-03T16:50:07.650Z,68.07
2022-12-03T16:52:37.205Z,69.80
2022-12-03T16:55:06.877Z,66.10
2022-12-03T16:57:34.124Z,67.03
2022-12-03T17:00:01.255Z,72.97
2022-12-03T17:02:28.094Z,70.15
2022-12-03T17:04:55.063Z,64.85
2022-12-03T17:07:21.907Z,63.63
2022-12-03T17:09:49.334Z,63.88
2022-12-03T17:12:16.268Z,55.50
2022-12-03T17:14:43.162Z,58.42
2022-12-03T17:17:09.873Z,53.65
2022-12-03T17:19:38.725Z,55.80
2022-12-03T17:22:08.043Z,48.85
2022-12-03T17:24:34.769Z,53.67
2022-12-03T17:27:01.465Z,52.67
2022-12-03T17:29:28.121Z,51.78
2022-12-03T17:31:57.137Z,50.78
2022-12-03T17:34:24.015Z,50.65
2022-12-03T17:36:50.885Z,50.83
2022-12-03T17:39:17.607Z,49.47
2022-12-03T17:41:44.270Z,53.25
2022-12-03T17:44:15.088Z,53.20
2022-12-03T17:46:47.505Z,50.72
2022-12-03T17:49:14.286Z,47.67
2022-12-03T17:51:43.345Z,47.67
2022-12-03T17:54:12.302Z,47.67
2022-12-03T17:56:39.366Z,49.35
2022-12-03T17:59:06.084Z,53.78
2022-12-03T18:01:32.828Z,56.17
2022-12-03T18:04:01.994Z,56.85
2022-12-03T18:06:28.960Z,56.15
2022-12-03T18:08:55.622Z,59.22
2022-12-03T18:11:24.603Z,56.70
2022-12-03T18:13:51.285Z,61.80
2022-12-03T18:16:20.375Z,63.92
2022-12-03T18:18:47.111Z,58.35
2022-12-03T18:21:13.906Z,63.58
2022-12-03T18:23:41.032Z,64.07
2022-12-03T18:26:08.628Z,62.95
2022-12-03T18:28:35.319Z,62.40
2022-12-03T18:31:04.604Z,68.05
2022-12-03T18:33:31.343Z,63.75
2022-12-03T18:35:58.496Z,62.60
2022-12-03T18:38:31.371Z,67.15
2022-12-03T18:40:58.206Z,68.15
2022-12-03T18:43:26.296Z,73.45
2022-12-03T18:45:53.136Z,68.82
2022-12-03T18:48:20.451Z,78.53
2022-12-03T18:50:47.561Z,72.32
2022-12-03T18:53:16.707Z,73.63
2022-12-03T18:55:49.194Z,71.57
2022-12-03T18:58:19.297Z,71.25
2022-12-03T19:00:46.104Z,70.57
2022-12-03T19:03:12.932Z,76.18
2022-12-03T19:05:39.797Z,75.10
2022-12-03T19:08:14.165Z,78.22
2022-12-03T19:10:42.910Z,75.30
2022-12-03T19:13:11.954Z,71.40
2022-12-03T19:15:39.277Z,79.82
2022-12-03T19:18:07.451Z,75.35
2022-12-03T19:20:40.135Z,73.88
2022-12-03T19:23:09.527Z,70.40
2022-12-03T19:25:36.522Z,62.35
2022-12-03T19:28:05.422Z,69.28
2022-12-03T19:30:32.140Z,67.60
2022-12-03T19:33:01.029Z,69.28
2022-12-03T19:35:27.964Z,70.47
2022-12-03T19:37:55.620Z,74.03
2022-12-03T19:40:22.343Z,72.40
2022-12-03T19:42:49.056Z,63.08
2022-12-03T19:45:16.000Z,70.68
2022-12-03T19:47:42.752Z,69.72
2022-12-03T19:50:10.151Z,70.55
2022-12-03T19:52:38.981Z,79.63
2022-12-03T19:55:05.934Z,75.30
2022-12-03T19:57:32.679Z,81.60
2022-12-03T19:59:59.818Z,76.75
2022-12-03T20:02:28.994Z,78.72
2022-12-03T20:04:58.409Z,77.18
2022-12-03T20:07:25.100Z,76.25
2022-12-03T20:09:52.166Z,80.90
2022-12-03T20:12:21.243Z,78.60
2022-12-03T20:14:49.831Z,78.57
2022-12-03T20:17:16.532Z,80.45
2022-12-03T20:19:45.810Z,76.32
2022-12-03T20:22:14.930Z,73.05
2022-12-03T20:24:43.897Z,78.70
2022-12-03T20:27:10.607Z,78.47
2022-12-03T20:29:39.485Z,79.43
2022-12-03T20:32:06.994Z,83.50
2022-12-03T20:34:35.811Z,80.03
2022-12-03T20:37:02.995Z,79.10
2022-12-03T20:39:29.700Z,83.80
2022-12-03T20:41:56.392Z,74.43
2022-12-03T20:44:23.115Z,80.70
2022-12-03T20:46:49.895Z,82.55
2022-12-03T20:49:16.661Z,78.65
2022-12-03T20:51:43.535Z,84.80
2022-12-03T20:54:10.501Z,73.82
2022-12-03T20:56:39.435Z,83.35
2022-12-03T20:59:09.024Z,76.70
2022-12-03T21:01:36.590Z,83.07
2022-12-03T21:04:06.110Z,81.57
2022-12-03T21:06:35.752Z,77.07
2022-12-03T21:09:05.053Z,78.45
2022-12-03T21:11:33.887Z,83.60
2022-12-03T21:14:00.746Z,78.47
2022-12-03T21:16:59.180Z,78.53
2022-12-03T21:19:17.806Z,76.97
2022-12-03T21:21:44.464Z,82.05
2022-12-03T21:24:12.414Z,75.00
2022-12-03T21:26:40.646Z,73.03
2022-12-03T21:29:07.536Z,78.82
2022-12-03T21:31:35.590Z,72.65
2022-12-03T21:34:04.415Z,73.40
2022-12-03T21:36:31.277Z,71.65
2022-12-03T21:38:58.005Z,72.82
2022-12-03T21:41:24.701Z,75.95
2022-12-03T21:43:53.575Z,73.45
2022-12-03T21:47:09.670Z,69.30
2022-12-03T21:49:09.570Z,71.63
2022-12-03T21:51:38.537Z,69.47
2022-12-03T21:54:05.324Z,74.00
2022-12-03T21:56:33.014Z,72.85
2022-12-03T21:58:59.682Z,68.72
2022-12-03T22:01:28.654Z,76.63
2022-12-03T22:04:00.700Z,73.00
2022-12-03T22:06:27.602Z,72.35
2022-12-03T22:08:56.767Z,73.93
2022-12-03T22:11:24.056Z,73.65
2022-12-03T22:13:51.437Z,73.28
2022-12-03T22:16:21.034Z,73.40
2022-12-03T22:18:48.224Z,66.63
2022-12-03T22:21:18.193Z,70.57
2022-12-03T22:23:45.347Z,72.22
2022-12-03T22:26:20.070Z,68.95
2022-12-03T22:28:48.387Z,71.93
2022-12-03T22:31:16.417Z,71.40
2022-12-03T22:33:47.942Z,68.15
2022-12-03T22:36:21.079Z,72.72
2022-12-03T22:38:49.536Z,69.40
2022-12-03T22:41:19.296Z,66.93
2022-12-03T22:43:46.699Z,66.07
2022-12-03T22:46:13.774Z,69.00
2022-12-03T22:48:42.448Z,67.38
2022-12-03T22:51:15.248Z,70.72
2022-12-03T22:53:42.135Z,77.10
2022-12-03T22:56:09.876Z,67.10
2022-12-03T22:58:42.068Z,66.80
2022-12-03T23:01:08.939Z,64.70
2022-12-03T23:03:36.962Z,63.60
2022-12-03T23:06:10.960Z,70.28
2022-12-03T23:08:37.960Z,68.97
2022-12-03T23:11:09.943Z,68.95
2022-12-03T23:13:37.035Z,63.95
2022-12-03T23:16:04.211Z,67.47
2022-12-03T23:18:31.199Z,66.88
2022-12-03T23:20:58.074Z,62.20
2022-12-03T23:23:27.063Z,64.07
2022-12-03T23:26:14.372Z,64.88
2022-12-03T23:28:43.189Z,66.32
2022-12-03T23:31:30.352Z,66.55
2022-12-03T23:33:58.426Z,66.28
2022-12-03T23:36:27.425Z,67.13
2022-12-03T23:38:56.944Z,63.97
2022-12-03T23:41:24.224Z,67.05
2022-12-03T23:43:50.999Z,69.60
2022-12-03T23:46:21.113Z,69.43
2022-12-03T23:48:48.052Z,63.28
2022-12-03T23:51:17.621Z,68.60
2022-12-03T23:53:47.227Z,66.55
2022-12-03T23:56:16.600Z,68.03
2022-12-03T23:58:46.472Z,67.43
